createdAt,value
2019-02-27T00:01:03.499Z,65.80
2019-02-27T00:03:32.844Z,65.59
2019-02-27T00:06:02.198Z,65.37
2019-02-27T00:08:31.573Z,65.23
2019-02-27T00:11:00.920Z,65.29
2019-02-27T00:13:30.280Z,65.17
2019-02-27T00:15:59.666Z,65.50
2019-02-27T00:18:29.132Z,65.23
2019-02-27T00:20:58.534Z,65.20
2019-02-27T00:23:27.966Z,65.50
2019-02-27T00:25:57.331Z,65.50
2019-02-27T00:28:26.708Z,65.38
2019-02-27T00:30:56.412Z,65.21
2019-02-27T00:33:28.476Z,64.55
2019-02-27T00:35:56.891Z,65.18
2019-02-27T00:38:26.267Z,64.70
2019-02-27T00:40:55.761Z,64.66
2019-02-27T00:43:25.992Z,64.47
2019-02-27T00:45:56.251Z,64.50
2019-02-27T00:48:26.259Z,64.28
2019-02-27T00:50:56.079Z,64.50
2019-02-27T00:53:25.445Z,64.40
2019-02-27T00:55:54.836Z,64.56
2019-02-27T00:58:26.826Z,64.90
2019-02-27T01:00:55.320Z,64.82
2019-02-27T01:03:26.325Z,65.33
2019-02-27T01:05:55.956Z,65.51
2019-02-27T01:08:27.616Z,66.13
2019-02-27T01:10:56.452Z,65.87
2019-02-27T01:13:25.823Z,66.15
2019-02-27T01:15:55.201Z,66.40
2019-02-27T01:18:24.593Z,66.15
2019-02-27T01:20:54.110Z,66.59
2019-02-27T01:23:23.503Z,66.54
2019-02-27T01:25:56.093Z,66.43
2019-02-27T01:28:23.961Z,66.57
2019-02-27T01:30:53.348Z,66.52
2019-02-27T01:33:22.732Z,66.02
2019-02-27T01:35:52.415Z,65.84
2019-02-27T01:38:21.926Z,66.10
2019-02-27T01:40:51.666Z,66.24
2019-02-27T01:43:21.535Z,65.38
2019-02-27T01:45:51.845Z,65.50
2019-02-27T01:48:22.186Z,64.95
2019-02-27T01:50:55.182Z,64.39
2019-02-27T01:53:23.960Z,64.50
2019-02-27T01:55:56.159Z,64.21
2019-02-27T01:58:24.394Z,64.16
2019-02-27T02:00:56.025Z,63.66
2019-02-27T02:03:24.856Z,63.76
2019-02-27T02:05:56.994Z,63.59
2019-02-27T02:08:25.552Z,63.65
2019-02-27T02:10:56.143Z,63.71
2019-02-27T02:14:24.368Z,64.02
2019-02-27T02:17:28.298Z,64.35
2019-02-27T02:20:22.171Z,64.23
2019-02-27T02:23:48.412Z,64.10
2019-02-27T02:26:40.998Z,64.26
2019-02-27T02:29:53.164Z,64.68
2019-02-27T02:32:52.344Z,64.64
2019-02-27T02:35:50.705Z,64.67
2019-02-27T02:39:09.974Z,64.98
2019-02-27T02:41:55.680Z,65.30
2019-02-27T02:45:07.432Z,65.06
2019-02-27T02:47:55.457Z,65.38
2019-02-27T02:50:38.492Z,65.35
2019-02-27T02:55:56.953Z,65.25
2019-02-27T02:59:06.709Z,65.50
2019-02-27T03:01:53.669Z,65.64
2019-02-27T03:05:08.374Z,65.00
2019-02-27T03:08:05.247Z,64.66
2019-02-27T03:11:24.930Z,64.48
2019-02-27T03:14:26.388Z,64.05
2019-02-27T03:17:27.601Z,63.89
2019-02-27T03:20:32.065Z,63.90
2019-02-27T03:23:29.574Z,63.55
2019-02-27T03:26:08.047Z,63.12
2019-02-27T03:29:15.829Z,62.91
2019-02-27T03:32:04.722Z,62.12
2019-02-27T03:35:27.436Z,62.52
2019-02-27T03:38:23.735Z,62.49
2019-02-27T03:41:41.430Z,61.60
2019-02-27T03:44:38.058Z,61.51
2019-02-27T03:47:35.739Z,60.77
2019-02-27T03:50:42.435Z,60.84
2019-02-27T03:53:28.648Z,61.12
2019-02-27T03:56:43.531Z,61.37
2019-02-27T03:59:45.041Z,60.34
2019-02-27T04:02:51.232Z,60.66
2019-02-27T04:06:19.643Z,60.36
2019-02-27T04:08:56.818Z,59.81
2019-02-27T04:11:26.288Z,60.64
2019-02-27T04:14:03.058Z,60.93
2019-02-27T04:16:29.372Z,61.14
2019-02-27T04:19:03.147Z,60.43
2019-02-27T04:21:30.506Z,59.26
2019-02-27T04:23:59.944Z,59.57
2019-02-27T04:26:29.323Z,59.30
2019-02-27T04:29:04.063Z,59.28
2019-02-27T04:31:30.672Z,59.01
2019-02-27T04:34:01.200Z,59.26
2019-02-27T04:36:30.742Z,59.31
2019-02-27T04:39:02.550Z,59.70
2019-02-27T04:41:31.223Z,59.42
2019-02-27T04:44:05.265Z,59.28
2019-02-27T04:46:31.660Z,60.16
2019-02-27T04:49:03.919Z,59.87
2019-02-27T04:51:32.287Z,59.54
2019-02-27T04:54:06.258Z,59.39
2019-02-27T04:56:32.791Z,59.50
2019-02-27T04:59:02.180Z,59.81
2019-02-27T05:01:31.546Z,59.60
2019-02-27T05:04:01.419Z,59.21
2019-02-27T05:06:31.736Z,60.34
2019-02-27T05:09:01.119Z,60.68
2019-02-27T05:11:30.488Z,59.25
2019-02-27T05:13:59.865Z,59.46
2019-02-27T05:16:29.242Z,59.59
2019-02-27T05:19:03.535Z,60.64
2019-02-27T05:21:29.698Z,61.22
2019-02-27T05:23:59.094Z,62.05
2019-02-27T05:26:28.458Z,62.11
2019-02-27T05:28:59.113Z,61.91
2019-02-27T05:31:28.482Z,61.79
2019-02-27T05:33:57.873Z,62.20
2019-02-27T05:36:29.040Z,63.03
2019-02-27T05:38:58.279Z,61.69
2019-02-27T05:41:27.643Z,61.18
2019-02-27T05:43:56.972Z,62.00
2019-02-27T05:46:26.341Z,61.83
2019-02-27T05:48:55.797Z,61.64
2019-02-27T05:51:25.179Z,62.05
2019-02-27T05:53:56.162Z,62.18
2019-02-27T05:56:25.645Z,62.10
2019-02-27T05:58:56.327Z,61.99
2019-02-27T06:01:26.291Z,61.19
2019-02-27T06:03:55.661Z,61.08
2019-02-27T06:06:25.029Z,59.62
2019-02-27T06:08:54.643Z,60.19
2019-02-27T06:11:23.986Z,59.93
2019-02-27T06:13:53.453Z,59.17
2019-02-27T06:16:22.808Z,59.07
2019-02-27T06:18:56.011Z,59.02
2019-02-27T06:21:23.307Z,59.42
2019-02-27T06:23:52.741Z,59.63
2019-02-27T06:26:22.166Z,59.51
2019-02-27T06:28:51.521Z,59.76
2019-02-27T06:31:20.886Z,60.03
2019-02-27T06:33:50.288Z,60.39
2019-02-27T06:36:19.648Z,59.77
2019-02-27T06:38:49.051Z,59.64
2019-02-27T06:41:18.519Z,60.24
2019-02-27T06:43:47.924Z,60.58
2019-02-27T06:46:19.892Z,59.89
2019-02-27T06:48:48.436Z,60.26
2019-02-27T06:51:17.815Z,60.34
2019-02-27T06:53:47.198Z,60.42
2019-02-27T06:56:16.578Z,60.53
2019-02-27T06:58:47.523Z,60.38
2019-02-27T07:01:17.172Z,61.07
2019-02-27T07:03:46.563Z,61.22
2019-02-27T07:06:15.935Z,61.52
2019-02-27T07:08:45.516Z,61.87
2019-02-27T07:11:14.912Z,62.09
2019-02-27T07:13:44.262Z,62.36
2019-02-27T07:16:13.622Z,62.45
2019-02-27T07:18:43.019Z,63.20
2019-02-27T07:21:12.430Z,63.39
2019-02-27T07:23:41.877Z,63.43
2019-02-27T07:26:13.269Z,63.15
2019-02-27T07:28:43.630Z,63.04
2019-02-27T07:31:17.563Z,63.42
2019-02-27T07:33:44.625Z,62.72
2019-02-27T07:36:14.042Z,62.87
2019-02-27T07:38:43.458Z,63.49
2019-02-27T07:41:17.529Z,63.79
2019-02-27T07:43:44.072Z,65.16
2019-02-27T07:46:13.557Z,66.15
2019-02-27T07:48:42.940Z,66.73
2019-02-27T07:51:12.295Z,67.21
2019-02-27T07:53:41.653Z,67.45
2019-02-27T07:56:11.100Z,68.85
2019-02-27T07:58:40.468Z,68.40
2019-02-27T08:01:09.998Z,67.66
2019-02-27T08:03:39.707Z,67.66
2019-02-27T08:06:09.074Z,68.71
2019-02-27T08:08:38.446Z,70.30
2019-02-27T08:11:07.849Z,72.17
2019-02-27T08:13:37.253Z,72.32
2019-02-27T08:16:06.612Z,72.44
2019-02-27T08:18:37.631Z,71.72
2019-02-27T08:21:07.088Z,70.85
2019-02-27T08:23:36.435Z,69.59
2019-02-27T08:26:05.866Z,68.35
2019-02-27T08:28:35.295Z,68.14
2019-02-27T08:31:04.688Z,65.98
2019-02-27T08:33:34.045Z,65.94
2019-02-27T08:36:03.456Z,65.23
2019-02-27T08:38:32.792Z,64.90
2019-02-27T08:41:02.154Z,64.21
2019-02-27T08:43:31.546Z,64.94
2019-02-27T08:46:02.389Z,65.29
2019-02-27T08:48:32.058Z,64.56
2019-02-27T08:51:05.687Z,65.20
2019-02-27T08:53:34.496Z,65.51
2019-02-27T08:56:03.702Z,65.02
2019-02-27T08:58:33.137Z,64.91
2019-02-27T09:01:03.483Z,64.73
2019-02-27T09:03:36.211Z,65.40
2019-02-27T09:06:04.004Z,65.65
2019-02-27T09:08:33.352Z,65.84
2019-02-27T09:11:06.505Z,66.04
2019-02-27T09:13:33.878Z,66.21
2019-02-27T09:16:03.306Z,66.12
2019-02-27T09:18:33.363Z,66.23
2019-02-27T09:21:03.811Z,66.18
2019-02-27T09:23:33.635Z,66.33
2019-02-27T09:26:03.576Z,66.19
2019-02-27T09:28:33.103Z,66.09
2019-02-27T09:31:04.326Z,65.92
2019-02-27T09:33:38.863Z,65.59
2019-02-27T09:36:04.692Z,65.91
2019-02-27T09:38:34.039Z,65.50
2019-02-27T09:41:03.545Z,65.46
2019-02-27T09:43:32.965Z,65.95
2019-02-27T09:46:02.368Z,65.86
2019-02-27T09:48:33.445Z,65.48
2019-02-27T09:51:02.914Z,65.83
2019-02-27T09:53:34.032Z,65.20
2019-02-27T09:56:03.676Z,65.05
2019-02-27T09:58:33.064Z,65.68
2019-02-27T10:01:16.974Z,66.39
2019-02-27T10:03:46.478Z,66.77
2019-02-27T10:06:15.865Z,67.22
2019-02-27T10:08:45.367Z,67.36
2019-02-27T10:11:18.850Z,66.52
2019-02-27T10:13:45.871Z,66.15
2019-02-27T10:16:15.276Z,65.94
2019-02-27T10:18:44.644Z,66.50
2019-02-27T10:21:14.036Z,66.38
2019-02-27T10:23:43.418Z,66.51
2019-02-27T10:26:12.825Z,65.24
2019-02-27T10:28:44.025Z,65.25
2019-02-27T10:31:13.522Z,65.98
2019-02-27T10:33:43.681Z,66.20
2019-02-27T10:36:13.238Z,66.40
2019-02-27T10:38:42.569Z,66.32
2019-02-27T10:41:11.943Z,66.72
2019-02-27T10:43:41.382Z,65.69
2019-02-27T10:46:10.734Z,65.55
2019-02-27T10:48:40.249Z,65.81
2019-02-27T10:51:10.195Z,65.79
2019-02-27T10:53:39.627Z,65.23
2019-02-27T10:56:09.024Z,64.56
2019-02-27T10:58:38.400Z,64.80
2019-02-27T11:01:07.807Z,65.08
2019-02-27T11:03:37.207Z,64.22
2019-02-27T11:06:06.594Z,64.05
2019-02-27T11:08:36.075Z,64.11
2019-02-27T11:11:05.549Z,63.82
2019-02-27T11:13:34.959Z,62.72
2019-02-27T11:16:04.419Z,63.06
2019-02-27T11:18:33.802Z,62.64
2019-02-27T11:21:03.187Z,63.05
2019-02-27T11:23:32.571Z,63.24
2019-02-27T11:26:02.002Z,63.59
2019-02-27T11:28:31.392Z,64.17
2019-02-27T11:31:00.880Z,63.92
2019-02-27T11:33:33.452Z,63.48
2019-02-27T11:36:03.231Z,63.38
2019-02-27T11:38:32.736Z,64.09
2019-02-27T11:41:02.204Z,64.21
2019-02-27T11:43:31.820Z,64.76
2019-02-27T11:46:01.291Z,64.94
2019-02-27T11:48:30.667Z,64.78
2019-02-27T11:51:00.048Z,65.09
2019-02-27T11:53:29.447Z,64.93
2019-02-27T11:55:58.848Z,64.02
2019-02-27T11:58:28.331Z,64.76
2019-02-27T12:00:57.735Z,64.24
2019-02-27T12:03:27.132Z,64.23
2019-02-27T12:05:56.477Z,63.44
2019-02-27T12:08:26.843Z,63.00
2019-02-27T12:10:56.349Z,62.91
2019-02-27T12:13:28.793Z,63.38
2019-02-27T12:15:58.224Z,62.68
2019-02-27T12:18:27.659Z,62.62
2019-02-27T12:20:57.022Z,61.95
2019-02-27T12:23:26.460Z,61.22
2019-02-27T12:25:55.945Z,62.14
2019-02-27T12:28:25.753Z,62.37
2019-02-27T12:30:55.140Z,62.08
2019-02-27T12:33:29.209Z,62.00
2019-02-27T12:35:55.648Z,62.32
2019-02-27T12:38:25.038Z,62.17
2019-02-27T12:40:58.261Z,61.42
2019-02-27T12:43:25.555Z,61.07
2019-02-27T12:45:57.678Z,60.86
2019-02-27T12:48:26.127Z,59.73
2019-02-27T12:50:55.539Z,59.31
2019-02-27T12:53:24.929Z,58.63
2019-02-27T12:55:54.358Z,58.43
2019-02-27T12:58:24.426Z,58.20
2019-02-27T13:00:54.417Z,57.74
2019-02-27T13:03:23.802Z,57.86
2019-02-27T13:05:53.195Z,58.02
2019-02-27T13:08:22.579Z,58.23
2019-02-27T13:10:52.022Z,57.97
2019-02-27T13:13:25.485Z,57.67
2019-02-27T13:15:52.439Z,57.78
2019-02-27T13:18:21.887Z,58.44
2019-02-27T13:20:51.316Z,58.82
2019-02-27T13:23:20.701Z,59.40
2019-02-27T13:25:50.126Z,59.89
2019-02-27T13:28:20.395Z,59.87
2019-02-27T13:30:49.833Z,59.78
2019-02-27T13:33:19.236Z,61.74
2019-02-27T13:35:48.625Z,62.83
2019-02-27T13:38:18.665Z,63.29
2019-02-27T13:40:48.149Z,64.47
2019-02-27T13:43:17.870Z,65.53
2019-02-27T13:45:48.149Z,65.85
2019-02-27T13:48:17.491Z,66.21
2019-02-27T13:50:46.868Z,66.10
2019-02-27T13:53:16.282Z,65.73
2019-02-27T13:55:48.238Z,65.76
2019-02-27T13:58:16.860Z,65.16
2019-02-27T14:00:46.245Z,65.01
2019-02-27T14:03:15.635Z,65.20
2019-02-27T14:05:45.032Z,64.17
2019-02-27T14:08:14.517Z,64.23
2019-02-27T14:10:43.971Z,64.03
2019-02-27T14:13:13.352Z,64.79
2019-02-27T14:15:42.756Z,65.85
2019-02-27T14:18:13.432Z,66.85
2019-02-27T14:20:43.272Z,66.61
2019-02-27T14:23:14.520Z,66.35
2019-02-27T14:25:44.147Z,65.94
2019-02-27T14:28:13.724Z,66.61
2019-02-27T14:30:45.620Z,65.71
2019-02-27T14:33:15.040Z,66.15
2019-02-27T14:35:44.415Z,65.47
2019-02-27T14:38:15.044Z,64.74
2019-02-27T14:40:44.444Z,64.75
2019-02-27T14:43:13.811Z,65.33
2019-02-27T14:45:43.235Z,63.96
2019-02-27T14:48:12.666Z,63.77
2019-02-27T14:50:42.065Z,62.02
2019-02-27T14:53:11.589Z,61.44
2019-02-27T14:55:40.938Z,62.64
2019-02-27T14:58:10.319Z,62.36
2019-02-27T15:00:40.856Z,62.19
2019-02-27T15:03:10.558Z,62.53
2019-02-27T15:05:43.148Z,62.68
2019-02-27T15:08:11.076Z,62.65
2019-02-27T15:10:41.351Z,63.06
2019-02-27T15:13:10.865Z,62.50
2019-02-27T15:15:43.312Z,62.67
2019-02-27T15:18:11.727Z,62.20
2019-02-27T15:20:41.256Z,61.68
2019-02-27T15:23:10.673Z,61.51
2019-02-27T15:25:43.188Z,61.70
2019-02-27T15:28:11.167Z,62.02
2019-02-27T15:30:40.608Z,61.75
2019-02-27T15:33:10.002Z,66.05
2019-02-27T15:35:39.487Z,67.18
2019-02-27T15:38:11.737Z,67.40
2019-02-27T15:40:40.066Z,69.02
2019-02-27T15:43:11.465Z,68.98
2019-02-27T15:45:47.375Z,68.88
2019-02-27T15:48:11.742Z,68.80
2019-02-27T15:50:41.131Z,68.39
2019-02-27T15:53:14.590Z,67.26
2019-02-27T15:55:41.626Z,67.64
2019-02-27T15:58:11.051Z,67.08
2019-02-27T16:00:40.432Z,67.04
2019-02-27T16:03:11.749Z,67.19
2019-02-27T16:05:40.936Z,67.26
2019-02-27T16:08:10.350Z,67.92
2019-02-27T16:10:43.765Z,67.26
2019-02-27T16:13:10.962Z,66.96
2019-02-27T16:15:40.435Z,66.98
2019-02-27T16:18:09.950Z,67.55
2019-02-27T16:20:39.325Z,67.39
2019-02-27T16:23:09.132Z,67.48
2019-02-27T16:25:38.586Z,67.68
2019-02-27T16:28:11.332Z,68.56
2019-02-27T16:30:39.110Z,68.02
2019-02-27T16:33:08.580Z,68.21
2019-02-27T16:35:41.655Z,67.24
2019-02-27T16:38:09.286Z,67.12
2019-02-27T16:40:38.694Z,66.68
2019-02-27T16:43:10.288Z,66.13
2019-02-27T16:45:39.542Z,66.03
2019-02-27T16:48:11.116Z,65.30
2019-02-27T16:50:40.205Z,65.07
2019-02-27T16:53:09.578Z,65.72
2019-02-27T16:55:39.625Z,65.30
2019-02-27T16:58:09.113Z,64.91
2019-02-27T17:00:39.178Z,65.90
2019-02-27T17:03:12.923Z,65.53
2019-02-27T17:05:43.227Z,65.51
2019-02-27T17:08:11.565Z,65.78
2019-02-27T17:10:40.986Z,65.95
2019-02-27T17:13:14.397Z,66.83
2019-02-27T17:15:41.495Z,65.99
2019-02-27T17:18:12.680Z,64.89
2019-02-27T17:20:45.703Z,65.14
2019-02-27T17:23:13.167Z,64.71
2019-02-27T17:25:42.622Z,64.53
2019-02-27T17:28:12.044Z,64.36
2019-02-27T17:30:41.418Z,63.96
2019-02-27T17:33:10.842Z,63.89
2019-02-27T17:35:40.211Z,64.14
2019-02-27T17:38:10.867Z,63.38
2019-02-27T17:40:40.748Z,63.49
2019-02-27T17:43:10.140Z,63.51
2019-02-27T17:45:39.650Z,62.34
2019-02-27T17:48:09.392Z,62.28
2019-02-27T17:50:40.177Z,62.13
2019-02-27T17:53:09.554Z,61.55
2019-02-27T17:55:41.744Z,62.54
2019-02-27T17:58:10.055Z,62.84
2019-02-27T18:00:43.033Z,62.27
2019-02-27T18:03:12.449Z,61.85
2019-02-27T18:05:41.967Z,62.20
2019-02-27T18:08:16.297Z,62.15
2019-02-27T18:10:45.154Z,62.38
2019-02-27T18:13:14.515Z,62.73
2019-02-27T18:15:43.964Z,62.78
2019-02-27T18:18:13.365Z,62.87
2019-02-27T18:20:42.790Z,63.24
2019-02-27T18:23:12.153Z,63.16
2019-02-27T18:25:42.327Z,63.61
2019-02-27T18:28:11.814Z,63.54
2019-02-27T18:30:42.703Z,63.46
2019-02-27T18:33:13.958Z,63.93
2019-02-27T18:35:45.939Z,63.79
2019-02-27T18:38:15.360Z,64.28
2019-02-27T18:40:44.735Z,64.09
2019-02-27T18:43:14.154Z,64.04
2019-02-27T18:45:43.546Z,64.07
2019-02-27T18:48:15.786Z,64.39
2019-02-27T18:50:45.188Z,64.29
2019-02-27T18:53:14.558Z,64.21
2019-02-27T18:55:44.213Z,64.66
2019-02-27T18:58:13.748Z,64.38
2019-02-27T19:00:43.219Z,64.24
2019-02-27T19:03:12.720Z,64.13
2019-02-27T19:05:42.362Z,64.38
2019-02-27T19:08:11.721Z,64.01
2019-02-27T19:10:42.544Z,64.42
2019-02-27T19:13:12.166Z,64.83
2019-02-27T19:15:45.470Z,64.55
2019-02-27T19:18:12.981Z,64.32
2019-02-27T19:20:42.599Z,64.28
2019-02-27T19:23:17.160Z,64.48
2019-02-27T19:25:43.373Z,64.33
2019-02-27T19:28:12.850Z,64.54
2019-02-27T19:30:42.636Z,64.74
2019-02-27T19:33:12.083Z,64.77
2019-02-27T19:35:41.462Z,64.76
2019-02-27T19:38:12.957Z,64.92
2019-02-27T19:40:42.134Z,65.07
2019-02-27T19:43:11.498Z,65.14
2019-02-27T19:45:42.286Z,64.89
2019-02-27T19:48:12.012Z,65.19
2019-02-27T19:50:44.916Z,65.01
2019-02-27T19:53:12.626Z,65.12
2019-02-27T19:55:42.051Z,64.90
2019-02-27T19:58:11.416Z,64.80
2019-02-27T20:00:47.978Z,64.65
2019-02-27T20:03:11.998Z,64.62
2019-02-27T20:05:41.515Z,64.32
2019-02-27T20:08:11.151Z,63.86
2019-02-27T20:10:40.682Z,64.24
2019-02-27T20:13:10.186Z,64.22
2019-02-27T20:15:39.752Z,64.14
2019-02-27T20:18:09.512Z,64.09
2019-02-27T20:20:40.977Z,63.78
2019-02-27T20:23:13.003Z,63.51
2019-02-27T20:25:44.133Z,63.80
2019-02-27T20:28:13.742Z,63.50
2019-02-27T20:30:43.210Z,63.43
2019-02-27T20:33:12.605Z,63.49
2019-02-27T20:35:42.008Z,63.65
2019-02-27T20:38:15.357Z,63.82
2019-02-27T20:40:42.824Z,63.88
2019-02-27T20:43:12.201Z,63.76
2019-02-27T20:45:42.928Z,63.89
2019-02-27T20:48:12.964Z,63.84
2019-02-27T20:50:43.868Z,63.96
2019-02-27T20:53:13.406Z,64.04
2019-02-27T20:55:42.847Z,63.68
2019-02-27T20:58:16.328Z,63.45
2019-02-27T21:00:43.549Z,63.36
2019-02-27T21:03:13.119Z,63.46
2019-02-27T21:05:42.482Z,63.19
2019-02-27T21:08:11.866Z,63.52
2019-02-27T21:10:41.333Z,63.28
2019-02-27T21:13:15.668Z,63.45
2019-02-27T21:15:41.890Z,63.09
2019-02-27T21:18:11.305Z,63.39
2019-02-27T21:20:42.235Z,63.20
2019-02-27T21:23:11.874Z,63.18
2019-02-27T21:25:41.281Z,63.46
2019-02-27T21:28:10.770Z,63.39
2019-02-27T21:30:40.275Z,63.42
2019-02-27T21:33:11.173Z,63.46
2019-02-27T21:35:40.762Z,64.02
2019-02-27T21:38:10.193Z,63.97
2019-02-27T21:40:39.548Z,63.71
2019-02-27T21:43:09.024Z,63.95
2019-02-27T21:45:38.431Z,63.68
2019-02-27T21:48:07.769Z,63.37
2019-02-27T21:50:39.914Z,63.21
2019-02-27T21:53:08.442Z,63.36
2019-02-27T21:55:37.823Z,62.88
2019-02-27T21:58:07.266Z,62.79
2019-02-27T22:00:36.652Z,62.87
2019-02-27T22:03:08.071Z,62.89
2019-02-27T22:05:42.805Z,62.90
2019-02-27T22:08:08.737Z,62.92
2019-02-27T22:10:38.194Z,63.05
2019-02-27T22:13:10.591Z,63.16
2019-02-27T22:15:38.907Z,63.45
2019-02-27T22:18:11.811Z,63.34
2019-02-27T22:20:39.517Z,63.21
2019-02-27T22:23:09.225Z,63.24
2019-02-27T22:25:38.630Z,63.49
2019-02-27T22:28:08.272Z,63.50
2019-02-27T22:30:37.700Z,63.69
2019-02-27T22:33:07.124Z,63.54
2019-02-27T22:35:37.846Z,63.83
2019-02-27T22:38:07.649Z,63.77
2019-02-27T22:40:37.918Z,63.86
2019-02-27T22:43:08.131Z,63.85
2019-02-27T22:45:40.504Z,63.83
2019-02-27T22:48:08.614Z,63.71
2019-02-27T22:50:38.304Z,64.14
2019-02-27T22:53:09.192Z,64.42
2019-02-27T22:55:42.241Z,64.20
2019-02-27T22:58:09.726Z,64.67
2019-02-27T23:01:08.533Z,64.60
2019-02-27T23:03:47.291Z,64.75
2019-02-27T23:06:16.828Z,65.00
2019-02-27T23:08:46.303Z,65.19
2019-02-27T23:11:15.718Z,65.54
2019-02-27T23:13:48.398Z,65.59
2019-02-27T23:16:18.967Z,65.60
2019-02-27T23:18:48.676Z,65.78
2019-02-27T23:21:18.113Z,66.06
2019-02-27T23:23:47.474Z,65.96
2019-02-27T23:26:19.766Z,66.26
2019-02-27T23:28:47.969Z,66.22
2019-02-27T23:31:22.231Z,66.42
2019-02-27T23:33:48.477Z,66.40
2019-02-27T23:36:17.831Z,66.60
2019-02-27T23:38:47.202Z,66.75
2019-02-27T23:41:16.589Z,66.78
2019-02-27T23:43:45.969Z,67.12
2019-02-27T23:46:15.699Z,67.22
2019-02-27T23:48:46.783Z,67.00
2019-02-27T23:51:17.002Z,67.38
2019-02-27T23:53:46.695Z,67.32
2019-02-27T23:56:20.232Z,67.38
2019-02-27T23:58:47.184Z,67.46
